createdAt,value
2022-09-02T00:00:25.513Z,73.5
2022-09-02T00:01:27.550Z,73.5
2022-09-02T00:02:29.652Z,73.4
2022-09-02T00:03:31.697Z,73.4
2022-09-02T00:04:33.513Z,73.4
2022-09-02T00:05:35.521Z,73.4
2022-09-02T00:06:37.510Z,73.4
2022-09-02T00:07:39.514Z,73.6
2022-09-02T00:08:41.511Z,73.4
2022-09-02T00:09:43.502Z,73.2
2022-09-02T00:10:45.579Z,73.5
2022-09-02T00:11:47.511Z,73.4
2022-09-02T00:12:51.687Z,73.4
2022-09-02T00:13:53.515Z,73.2
2022-09-02T00:14:55.513Z,73.4
2022-09-02T00:15:57.506Z,73.3
2022-09-02T00:16:59.582Z,73.5
2022-09-02T00:18:01.518Z,73.4
2022-09-02T00:19:03.521Z,73.2
2022-09-02T00:20:07.531Z,73.3
2022-09-02T00:21:11.519Z,73.3
2022-09-02T00:22:13.520Z,73.2
2022-09-02T00:23:15.605Z,73.3
2022-09-02T00:24:17.523Z,73.3
2022-09-02T00:25:19.529Z,73.3
2022-09-02T00:26:23.530Z,73.2
2022-09-02T00:27:27.525Z,73
2022-09-02T00:28:29.528Z,73.1
2022-09-02T00:29:31.536Z,73.1
2022-09-02T00:30:33.532Z,73.1
2022-09-02T00:31:35.617Z,73.3
2022-09-02T00:32:39.527Z,73.2
2022-09-02T00:33:41.533Z,73.2
2022-09-02T00:34:43.535Z,73.3
2022-09-02T00:35:45.541Z,73.2
2022-09-02T00:36:47.528Z,73.2
2022-09-02T00:37:49.566Z,73.2
2022-09-02T00:38:51.549Z,73.1
2022-09-02T00:39:53.540Z,73.1
2022-09-02T00:40:57.550Z,73.1
2022-09-02T00:41:59.546Z,73
2022-09-02T00:43:01.583Z,73.1
2022-09-02T00:44:05.590Z,73.1
2022-09-02T00:45:07.573Z,73.1
2022-09-02T00:46:09.646Z,73
2022-09-02T00:47:11.595Z,73
2022-09-02T00:48:13.601Z,73.3
2022-09-02T00:49:18.554Z,73.1
2022-09-02T00:50:20.550Z,73.1
2022-09-02T00:51:22.624Z,72.9
2022-09-02T00:52:25.553Z,73.2
2022-09-02T00:53:27.553Z,73.1
2022-09-02T00:54:29.565Z,72.9
2022-09-02T00:55:31.550Z,72.9
2022-09-02T00:56:33.566Z,72.9
2022-09-02T00:57:35.553Z,72.8
2022-09-02T00:58:37.554Z,72.8
2022-09-02T00:59:39.557Z,72.9
2022-09-02T01:00:41.676Z,72.9
2022-09-02T01:01:43.702Z,73
2022-09-02T01:02:45.587Z,72.9
2022-09-02T01:03:47.558Z,72.8
2022-09-02T01:04:49.556Z,73
2022-09-02T01:05:51.570Z,72.9
2022-09-02T01:06:53.594Z,72.9
2022-09-02T01:07:55.602Z,72.9
2022-09-02T01:08:57.556Z,72.9
2022-09-02T01:09:59.564Z,72.9
2022-09-02T01:11:04.755Z,72.8
2022-09-02T01:12:07.706Z,72.8
2022-09-02T01:13:08.606Z,72.9
2022-09-02T01:14:10.560Z,72.8
2022-09-02T01:15:12.559Z,72.8
2022-09-02T01:16:14.688Z,72.9
2022-09-02T01:17:18.563Z,72.8
2022-09-02T01:18:20.576Z,72.8
2022-09-02T01:19:22.580Z,72.8
2022-09-02T01:20:26.571Z,72.8
2022-09-02T01:21:30.564Z,72.8
2022-09-02T01:22:34.567Z,72.8
2022-09-02T01:23:38.579Z,72.7
2022-09-02T01:24:42.569Z,72.7
2022-09-02T01:25:44.581Z,72.7
2022-09-02T01:26:46.617Z,72.9
2022-09-02T01:27:48.574Z,72.8
2022-09-02T01:28:50.579Z,72.7
2022-09-02T01:29:52.575Z,72.7
2022-09-02T01:30:54.605Z,72.6
2022-09-02T01:31:56.641Z,72.9
2022-09-02T01:32:58.620Z,72.8
2022-09-02T01:34:00.579Z,72.7
2022-09-02T01:35:02.591Z,72.8
2022-09-02T01:36:04.582Z,72.8
2022-09-02T01:37:06.584Z,72.8
2022-09-02T01:38:08.597Z,72.8
2022-09-02T01:39:10.588Z,72.9
2022-09-02T01:40:12.681Z,72.9
2022-09-02T01:41:14.596Z,72.8
2022-09-02T01:42:16.582Z,72.8
2022-09-02T01:43:19.709Z,72.8
2022-09-02T01:44:23.591Z,72.7
2022-09-02T01:45:25.584Z,72.7
2022-09-02T01:46:27.653Z,72.9
2022-09-02T01:47:29.594Z,72.7
2022-09-02T01:48:31.579Z,72.7
2022-09-02T01:49:35.305Z,72.8
2022-09-02T01:50:35.596Z,72.8
2022-09-02T01:51:37.626Z,72.7
2022-09-02T01:52:39.591Z,72.7
2022-09-02T01:53:41.604Z,72.8
2022-09-02T01:54:43.607Z,72.8
2022-09-02T01:55:47.581Z,72.8
2022-09-02T01:56:51.596Z,72.7
2022-09-02T01:57:53.625Z,72.6
2022-09-02T01:58:55.603Z,72.4
2022-09-02T01:59:59.631Z,72.5
2022-09-02T02:01:01.675Z,72.7
2022-09-02T02:02:03.638Z,72.8
2022-09-02T02:03:05.606Z,72.6
2022-09-02T02:04:12.677Z,72.6
2022-09-02T02:05:09.655Z,72.6
2022-09-02T02:06:11.611Z,72.8
2022-09-02T02:07:13.599Z,72.8
2022-09-02T02:08:15.609Z,72.7
2022-09-02T02:09:17.610Z,72.7
2022-09-02T02:10:19.648Z,72.7
2022-09-02T02:11:23.613Z,72.6
2022-09-02T02:12:25.609Z,72.6
2022-09-02T02:13:27.617Z,72.5
2022-09-02T02:14:29.611Z,72.5
2022-09-02T02:15:34.707Z,72.6
2022-09-02T02:16:33.715Z,72.6
2022-09-02T02:17:35.618Z,72.6
2022-09-02T02:18:37.607Z,72.5
2022-09-02T02:19:39.622Z,72.5
2022-09-02T02:20:42.877Z,72.6
2022-09-02T02:21:45.618Z,72.5
2022-09-02T02:22:49.655Z,72.6
2022-09-02T02:23:53.622Z,72.5
2022-09-02T02:24:55.623Z,72.6
2022-09-02T02:25:57.621Z,72.6
2022-09-02T02:26:59.622Z,72.7
2022-09-02T02:28:04.314Z,72.6
2022-09-02T02:29:03.623Z,72.6
2022-09-02T02:30:05.623Z,72.5
2022-09-02T02:31:09.669Z,72.5
2022-09-02T02:32:11.630Z,72.4
2022-09-02T02:33:13.872Z,72.5
2022-09-02T02:34:15.632Z,72.5
2022-09-02T02:35:17.636Z,72.5
2022-09-02T02:36:19.641Z,72.6
2022-09-02T02:37:25.539Z,72.6
2022-09-02T02:38:25.635Z,72.4
2022-09-02T02:39:27.632Z,72.5
2022-09-02T02:40:29.663Z,72.5
2022-09-02T02:41:31.632Z,72.5
2022-09-02T02:42:33.639Z,72.4
2022-09-02T02:43:35.630Z,72.4
2022-09-02T02:44:39.635Z,72.5
2022-09-02T02:45:41.677Z,72.4
2022-09-02T02:46:43.805Z,72.5
2022-09-02T02:47:45.703Z,72.5
2022-09-02T02:48:47.661Z,72.5
2022-09-02T02:49:49.643Z,72.6
2022-09-02T02:50:51.673Z,72.4
2022-09-02T02:51:53.640Z,72.4
2022-09-02T02:52:55.649Z,72.5
2022-09-02T02:53:59.036Z,72.4
2022-09-02T02:54:59.648Z,72.5
2022-09-02T02:56:02.034Z,72.4
2022-09-02T02:57:03.999Z,72.5
2022-09-02T02:58:05.994Z,72.7
2022-09-02T02:59:07.993Z,72.4
2022-09-02T03:00:10.001Z,72.4
2022-09-02T03:01:12.006Z,72.4
2022-09-02T03:02:14.244Z,72.4
2022-09-02T03:03:16.001Z,72.4
2022-09-02T03:04:18.001Z,72.4
2022-09-02T03:05:20.040Z,72.4
2022-09-02T03:06:26.644Z,72.3
2022-09-02T03:07:25.998Z,72.5
2022-09-02T03:08:28.003Z,72.4
2022-09-02T03:09:30.011Z,72.5
2022-09-02T03:10:32.056Z,72.4
2022-09-02T03:11:34.008Z,72.4
2022-09-02T03:12:36.087Z,72.4
2022-09-02T03:13:40.107Z,72.4
2022-09-02T03:14:42.013Z,72.4
2022-09-02T03:15:44.036Z,72.4
2022-09-02T03:16:48.016Z,72.4
2022-09-02T03:17:52.100Z,72.4
2022-09-02T03:18:54.024Z,72.3
2022-09-02T03:19:56.029Z,72.3
2022-09-02T03:20:58.023Z,72.3
2022-09-02T03:22:00.015Z,72.2
2022-09-02T03:23:02.032Z,72.4
2022-09-02T03:24:04.024Z,72.3
2022-09-02T03:25:06.027Z,72.3
2022-09-02T03:26:10.224Z,72.3
2022-09-02T03:27:14.019Z,72.2
2022-09-02T03:28:18.014Z,72.3
2022-09-02T03:29:20.021Z,72.3
2022-09-02T03:30:22.023Z,72.3
2022-09-02T03:31:26.111Z,72.3
2022-09-02T03:32:30.696Z,72.2
2022-09-02T03:33:34.027Z,72.3
2022-09-02T03:34:38.029Z,72.3
2022-09-02T03:35:40.026Z,72.3
2022-09-02T03:36:42.081Z,72.2
2022-09-02T03:37:44.112Z,72.2
2022-09-02T03:38:48.028Z,72.2
2022-09-02T03:39:50.032Z,72.3
2022-09-02T03:40:52.581Z,72.5
2022-09-02T03:41:54.033Z,72.5
2022-09-02T03:42:59.918Z,72.5
2022-09-02T03:43:58.036Z,72.5
2022-09-02T03:45:00.033Z,72.6
2022-09-02T03:46:02.088Z,72.6
2022-09-02T03:48:10.199Z,72.5
2022-09-02T03:49:12.184Z,72.4
2022-09-02T03:50:14.217Z,72.4
2022-09-02T03:51:18.181Z,72.6
2022-09-02T03:52:20.184Z,72.7
2022-09-02T03:53:22.482Z,72.4
2022-09-02T03:54:26.182Z,72.6
2022-09-02T03:55:28.825Z,72.5
2022-09-02T03:56:30.211Z,72.4
2022-09-02T03:57:34.192Z,72.4
2022-09-02T03:58:38.194Z,72.3
2022-09-02T03:59:42.189Z,72.6
2022-09-02T04:00:47.217Z,72.6
2022-09-02T04:01:50.253Z,72.7
2022-09-02T04:02:54.226Z,72.6
2022-09-02T04:03:56.203Z,72.4
2022-09-02T04:04:58.187Z,72.4
2022-09-02T04:06:00.796Z,72.5
2022-09-02T04:07:02.200Z,72.4
2022-09-02T04:08:04.197Z,72.5
2022-09-02T04:09:06.197Z,72.4
2022-09-02T04:10:08.196Z,72.6
2022-09-02T04:11:10.210Z,72.7
2022-09-02T04:12:12.241Z,72.7
2022-09-02T04:13:14.280Z,72.7
2022-09-02T04:14:18.206Z,72.7
2022-09-02T04:15:20.206Z,72.7
2022-09-02T04:16:22.378Z,72.7
2022-09-02T04:17:24.221Z,72.6
2022-09-02T04:18:36.268Z,72.4
2022-09-02T04:19:28.199Z,72.4
2022-09-02T04:20:30.205Z,72.3
2022-09-02T04:21:32.248Z,72
2022-09-02T04:22:34.231Z,72.3
2022-09-02T04:23:36.212Z,72.4
2022-09-02T04:24:40.209Z,72.4
2022-09-02T04:25:42.212Z,72.7
2022-09-02T04:26:54.437Z,72.7
2022-09-02T04:27:58.270Z,72.6
2022-09-02T04:29:00.274Z,72.7
2022-09-02T04:30:02.278Z,72.7
2022-09-02T04:31:04.376Z,72.6
2022-09-02T04:32:06.432Z,72.4
2022-09-02T04:32:58.217Z,72.4
2022-09-02T04:34:06.652Z,72
2022-09-02T04:35:02.248Z,72
2022-09-02T04:36:04.929Z,72
2022-09-02T04:37:06.262Z,72
2022-09-02T04:38:08.238Z,72.1
2022-09-02T04:39:10.223Z,72.1
2022-09-02T04:40:12.276Z,72.4
2022-09-02T04:41:14.262Z,72.2
2022-09-02T04:42:18.256Z,72.2
2022-09-02T04:43:20.299Z,72.1
2022-09-02T04:44:22.229Z,72.3
2022-09-02T04:45:29.143Z,72.4
2022-09-02T04:46:33.976Z,72.4
2022-09-02T04:47:28.264Z,72.4
2022-09-02T04:48:30.233Z,72.3
2022-09-02T04:49:32.221Z,72.2
2022-09-02T04:50:34.232Z,72.2
2022-09-02T04:51:36.233Z,72.2
2022-09-02T04:52:38.263Z,72.5
2022-09-02T04:53:40.233Z,72.2
2022-09-02T04:54:42.241Z,72.3
2022-09-02T04:55:44.237Z,72.3
2022-09-02T04:56:48.233Z,72.3
2022-09-02T04:57:50.258Z,72
2022-09-02T04:58:52.236Z,72
2022-09-02T04:59:54.246Z,72.2
2022-09-02T05:00:56.265Z,72.3
2022-09-02T05:01:58.468Z,72.3
2022-09-02T05:03:00.799Z,72.2
2022-09-02T05:04:02.247Z,72.2
2022-09-02T05:05:04.252Z,72.4
2022-09-02T05:06:06.238Z,72.4
2022-09-02T05:07:08.243Z,72.2
2022-09-02T05:08:12.270Z,72.2
2022-09-02T05:09:16.248Z,72.2
2022-09-02T05:10:20.249Z,72.2
2022-09-02T05:11:24.242Z,72.3
2022-09-02T05:12:26.253Z,72.3
2022-09-02T05:13:28.243Z,72.4
2022-09-02T05:14:30.849Z,72.4
2022-09-02T05:15:32.295Z,71.9
2022-09-02T05:16:34.243Z,72.3
2022-09-02T05:17:36.257Z,72.3
2022-09-02T05:18:38.294Z,72.3
2022-09-02T05:19:40.256Z,72.3
2022-09-02T05:20:44.259Z,71.7
2022-09-02T05:21:48.278Z,71.8
2022-09-02T05:22:50.291Z,71.7
2022-09-02T05:23:52.256Z,72
2022-09-02T05:24:54.272Z,71.9
2022-09-02T05:25:56.255Z,71.8
2022-09-02T05:26:58.263Z,71.6
2022-09-02T05:28:02.285Z,72.3
2022-09-02T05:29:04.303Z,72.1
2022-09-02T05:30:06.268Z,72.1
2022-09-02T05:31:08.308Z,72.2
2022-09-02T05:32:10.263Z,72.2
2022-09-02T05:33:13.611Z,72.3
2022-09-02T05:34:14.293Z,72.3
2022-09-02T05:35:18.274Z,72.3
2022-09-02T05:36:20.290Z,72.3
2022-09-02T05:37:22.274Z,72.3
2022-09-02T05:38:24.280Z,72
2022-09-02T05:39:26.290Z,72.1
2022-09-02T05:40:28.890Z,71.9
2022-09-02T05:41:30.275Z,71.8
2022-09-02T05:42:32.299Z,72.1
2022-09-02T05:43:34.273Z,72.1
2022-09-02T05:44:36.277Z,72.1
2022-09-02T05:45:38.294Z,71.7
2022-09-02T05:46:40.269Z,72
2022-09-02T05:47:42.325Z,71.9
2022-09-02T05:48:44.276Z,72.2
2022-09-02T05:49:47.311Z,72
2022-09-02T05:50:50.362Z,72.2
2022-09-02T05:51:52.284Z,72.2
2022-09-02T05:52:54.307Z,71.7
2022-09-02T05:53:56.282Z,71.8
2022-09-02T05:54:58.281Z,71.7
2022-09-02T05:56:00.357Z,71.5
2022-09-02T05:57:02.283Z,71.7
2022-09-02T05:58:04.317Z,72
2022-09-02T05:59:06.291Z,71.8
2022-09-02T06:00:08.276Z,72.1
2022-09-02T06:01:10.290Z,71.9
2022-09-02T06:02:12.408Z,71.9
2022-09-02T06:03:14.479Z,72
2022-09-02T06:04:18.294Z,72.2
2022-09-02T06:06:22.284Z,72
2022-09-02T06:07:24.303Z,72.1
2022-09-02T06:08:26.298Z,72.3
2022-09-02T06:09:28.305Z,72.2
2022-09-02T06:10:30.288Z,72.4
2022-09-02T06:11:32.310Z,72.3
2022-09-02T06:12:34.295Z,72
2022-09-02T06:13:36.304Z,72.3
2022-09-02T06:14:38.340Z,72.1
2022-09-02T06:15:40.343Z,72.3
2022-09-02T06:16:42.284Z,72.5
2022-09-02T06:17:47.319Z,72.5
2022-09-02T06:18:50.306Z,72.1
2022-09-02T06:19:54.322Z,72
2022-09-02T06:20:56.314Z,72.3
2022-09-02T06:21:58.305Z,72.3
2022-09-02T06:23:00.659Z,72.4
2022-09-02T06:24:02.308Z,72.3
2022-09-02T06:25:04.315Z,72.3
2022-09-02T06:26:06.308Z,72.4
2022-09-02T06:27:08.302Z,72.3
2022-09-02T06:28:10.348Z,72.3
2022-09-02T06:29:12.307Z,72.3
2022-09-02T06:30:14.363Z,72.3
2022-09-02T06:31:16.417Z,72.2
2022-09-02T06:32:18.314Z,72.3
2022-09-02T06:33:20.374Z,72.5
2022-09-02T06:34:22.318Z,72.5
2022-09-02T06:35:24.314Z,72.4
2022-09-02T06:36:28.267Z,72.4
2022-09-02T06:37:28.316Z,72.5
2022-09-02T06:38:30.359Z,72.4
2022-09-02T06:39:32.317Z,72.6
2022-09-02T06:40:36.454Z,72.6
2022-09-02T06:41:40.324Z,72.5
2022-09-02T06:42:42.317Z,72.6
2022-09-02T06:43:44.326Z,72.6
2022-09-02T06:44:48.324Z,72.5
2022-09-02T06:45:50.392Z,72.6
2022-09-02T06:46:54.130Z,72.7
2022-09-02T06:47:54.335Z,72.8
2022-09-02T06:48:56.338Z,72.8
2022-09-02T06:49:58.323Z,72.8
2022-09-02T06:51:00.351Z,72.8
2022-09-02T06:52:02.325Z,72.8
2022-09-02T06:53:04.335Z,72.9
2022-09-02T06:54:06.325Z,72.9
2022-09-02T06:55:08.338Z,73
2022-09-02T06:56:10.366Z,73
2022-09-02T06:57:12.331Z,73
2022-09-02T06:58:14.368Z,73.1
2022-09-02T06:59:18.331Z,73.2
2022-09-02T07:00:20.368Z,73.2
2022-09-02T07:01:22.502Z,73.2
2022-09-02T07:02:24.338Z,73.2
2022-09-02T07:03:26.346Z,73.3
2022-09-02T07:04:28.353Z,73.3
2022-09-02T07:05:30.348Z,73.3
2022-09-02T07:06:33.382Z,73.3
2022-09-02T07:07:35.844Z,73.4
2022-09-02T07:08:37.973Z,73.4
2022-09-02T07:09:39.825Z,73.4
2022-09-02T07:10:41.348Z,73.5
2022-09-02T07:11:44.591Z,73.5
2022-09-02T07:12:45.957Z,73.6
2022-09-02T07:13:47.955Z,73.5
2022-09-02T07:14:51.546Z,73.6
2022-09-02T07:15:53.736Z,73.7
2022-09-02T07:16:56.096Z,73.7
2022-09-02T07:17:57.550Z,73.7
2022-09-02T07:19:02.897Z,73.7
2022-09-02T07:20:11.028Z,73.7
2022-09-02T07:21:05.384Z,73.7
2022-09-02T07:22:07.167Z,73.7
2022-09-02T07:23:08.814Z,73.7
2022-09-02T07:24:10.945Z,73.6
2022-09-02T07:25:12.585Z,73.5
2022-09-02T07:26:14.479Z,73.5
2022-09-02T07:27:16.507Z,73.2
2022-09-02T07:28:18.648Z,73.1
2022-09-02T07:29:20.931Z,73.1
2022-09-02T07:30:23.310Z,73.2
2022-09-02T07:31:24.835Z,73
2022-09-02T07:32:26.835Z,73
2022-09-02T07:33:28.967Z,73.1
2022-09-02T07:34:30.646Z,73.1
2022-09-02T07:35:32.485Z,72.9
2022-09-02T07:36:34.646Z,72.8
2022-09-02T07:37:36.899Z,72.6
2022-09-02T07:38:38.849Z,72.5
2022-09-02T07:39:40.441Z,72.4
2022-09-02T07:40:42.791Z,72.4
2022-09-02T07:41:44.748Z,72.4
2022-09-02T07:42:48.861Z,72.4
2022-09-02T07:43:51.805Z,72.3
2022-09-02T07:44:52.678Z,72.3
2022-09-02T07:45:54.637Z,72.3
2022-09-02T07:46:58.885Z,72.4
2022-09-02T07:48:09.143Z,72.2
2022-09-02T07:49:09.107Z,72.2
2022-09-02T07:50:20.629Z,72.2
2022-09-02T07:51:12.946Z,72.2
2022-09-02T07:52:15.174Z,72.2
2022-09-02T07:53:18.825Z,72.2
2022-09-02T07:54:21.162Z,72.2
2022-09-02T07:55:23.511Z,72.3
2022-09-02T07:56:25.673Z,72.4
2022-09-02T07:57:26.995Z,72.6
2022-09-02T07:58:28.710Z,72.4
2022-09-02T07:59:30.529Z,72.3
2022-09-02T08:00:32.585Z,72.2
2022-09-02T08:01:34.634Z,72
2022-09-02T08:02:36.533Z,71.9
2022-09-02T08:03:38.402Z,71.8
2022-09-02T08:04:40.388Z,71.8
2022-09-02T08:05:42.430Z,71.8
2022-09-02T08:06:44.390Z,71.6
2022-09-02T08:07:48.389Z,71.2
2022-09-02T08:08:50.396Z,71.2
2022-09-02T08:09:52.378Z,71.4
2022-09-02T08:10:54.447Z,71.4
2022-09-02T08:11:56.416Z,71.6
2022-09-02T08:12:58.404Z,71.6
2022-09-02T08:14:10.456Z,71.4
2022-09-02T08:15:12.503Z,71
2022-09-02T08:16:12.150Z,71.1
2022-09-02T08:17:10.882Z,71.1
2022-09-02T08:18:08.517Z,71.3
2022-09-02T08:19:10.434Z,71.3
2022-09-02T08:20:12.746Z,71.2
2022-09-02T08:21:14.450Z,71.1
2022-09-02T08:22:16.399Z,71.6
2022-09-02T08:23:33.158Z,71.6
2022-09-02T08:24:20.412Z,71.4
2022-09-02T08:25:22.416Z,71.5
2022-09-02T08:26:24.421Z,71.4
2022-09-02T08:27:26.450Z,71.3
2022-09-02T08:28:28.426Z,71.1
2022-09-02T08:29:30.406Z,71.2
2022-09-02T08:30:32.415Z,71.4
2022-09-02T08:31:34.466Z,71.4
2022-09-02T08:32:38.412Z,71.4
2022-09-02T08:33:42.425Z,71.5
2022-09-02T08:34:47.524Z,71.6
2022-09-02T08:35:51.417Z,71.5
2022-09-02T08:36:56.739Z,71.4
2022-09-02T08:37:55.424Z,71.3
2022-09-02T08:38:57.422Z,71.2
2022-09-02T08:39:59.436Z,71.4
2022-09-02T08:41:01.424Z,71.4
2022-09-02T08:42:03.503Z,71.4
2022-09-02T08:43:05.450Z,71.4
2022-09-02T08:44:07.430Z,71.6
2022-09-02T08:45:09.422Z,71.5
2022-09-02T08:46:12.469Z,71.4
2022-09-02T08:47:14.475Z,71.5
2022-09-02T08:48:18.430Z,71.5
2022-09-02T08:49:20.476Z,71.5
2022-09-02T08:50:22.467Z,71.4
2022-09-02T08:51:24.431Z,71.6
2022-09-02T08:52:26.439Z,71.7
2022-09-02T08:53:28.467Z,71.8
2022-09-02T08:54:30.467Z,71.5
2022-09-02T08:55:34.436Z,71
2022-09-02T08:56:38.481Z,71
2022-09-02T08:57:43.379Z,71.2
2022-09-02T08:58:43.537Z,71.3
2022-09-02T08:59:45.484Z,71.2
2022-09-02T09:00:47.539Z,71.4
2022-09-02T09:01:49.537Z,71.8
2022-09-02T09:02:51.608Z,72.4
2022-09-02T09:03:53.492Z,72.3
2022-09-02T09:04:55.487Z,72.3
2022-09-02T09:05:57.497Z,71.9
2022-09-02T09:06:59.482Z,71.5
2022-09-02T09:08:01.495Z,71.1
2022-09-02T09:09:05.492Z,71.1
2022-09-02T09:10:07.496Z,70.7
2022-09-02T09:11:09.501Z,70.6
2022-09-02T09:12:13.484Z,70.8
2022-09-02T09:13:15.492Z,70.9
2022-09-02T09:14:17.495Z,70.9
2022-09-02T09:15:20.496Z,70.9
2022-09-02T09:16:22.509Z,70.7
2022-09-02T09:17:24.492Z,70.8
2022-09-02T09:18:26.543Z,70.8
2022-09-02T09:19:28.491Z,71
2022-09-02T09:20:30.503Z,71.5
2022-09-02T09:21:32.497Z,72.1
2022-09-02T09:22:34.500Z,71.8
2022-09-02T09:23:36.523Z,72.1
2022-09-02T09:24:38.507Z,72.4
2022-09-02T09:25:40.512Z,72.7
2022-09-02T09:26:42.499Z,72.2
2022-09-02T09:27:44.502Z,71.8
2022-09-02T09:28:46.543Z,71.4
2022-09-02T09:29:48.511Z,71.4
2022-09-02T09:30:50.520Z,71.3
2022-09-02T09:31:52.581Z,71.5
2022-09-02T09:32:56.565Z,71.2
2022-09-02T09:33:58.548Z,71.6
2022-09-02T09:35:00.632Z,71.3
2022-09-02T09:36:02.494Z,72.2
2022-09-02T09:37:04.518Z,71.9
2022-09-02T09:38:06.522Z,71.4
2022-09-02T09:39:08.513Z,71.5
2022-09-02T09:40:10.574Z,71.4
2022-09-02T09:41:12.531Z,71.5
2022-09-02T09:42:16.753Z,72.1
2022-09-02T09:43:20.524Z,72.1
2022-09-02T09:44:24.513Z,72.2
2022-09-02T09:45:28.731Z,72.1
2022-09-02T09:46:30.519Z,72.1
2022-09-02T09:47:32.515Z,72.1
2022-09-02T09:48:34.517Z,71.7
2022-09-02T09:49:36.528Z,72
2022-09-02T09:50:40.549Z,72.1
2022-09-02T09:51:49.848Z,71.3
2022-09-02T09:52:46.534Z,71.8
2022-09-02T09:53:50.525Z,72
2022-09-02T09:54:52.522Z,71.5
2022-09-02T09:55:56.531Z,70.5
2022-09-02T09:56:58.536Z,70.7
2022-09-02T09:58:00.526Z,70.7
2022-09-02T09:59:02.530Z,71.4
2022-09-02T10:00:04.568Z,72.3
2022-09-02T10:01:06.614Z,72
2022-09-02T10:02:10.573Z,71.9
2022-09-02T10:03:12.559Z,71.2
2022-09-02T10:04:39.197Z,69.9
2022-09-02T10:05:17.547Z,69.9
2022-09-02T10:06:19.537Z,70.2
2022-09-02T10:07:23.542Z,70.2
2022-09-02T10:08:25.536Z,70.1
2022-09-02T10:09:29.544Z,70.5
2022-09-02T10:10:31.567Z,70.5
2022-09-02T10:11:33.543Z,70.4
2022-09-02T10:12:35.540Z,70.4
2022-09-02T10:13:37.545Z,70.3
2022-09-02T10:14:40.238Z,70.2
2022-09-02T10:15:41.904Z,70.8
2022-09-02T10:16:44.012Z,70.7
2022-09-02T10:17:46.264Z,70.7
2022-09-02T10:18:50.138Z,70.8
2022-09-02T10:19:53.764Z,70.6
2022-09-02T10:21:13.618Z,70.8
2022-09-02T10:21:59.794Z,70.6
2022-09-02T10:23:01.710Z,71.1
2022-09-02T10:24:09.220Z,71.4
2022-09-02T10:25:15.063Z,71.3
2022-09-02T10:26:17.986Z,71
2022-09-02T10:27:16.546Z,71
2022-09-02T10:28:14.459Z,71.1
2022-09-02T10:29:16.319Z,71.1
2022-09-02T10:30:20.114Z,70.8
2022-09-02T10:31:25.097Z,71
2022-09-02T10:32:27.994Z,71.1
2022-09-02T10:33:29.714Z,70.6
2022-09-02T10:34:33.696Z,70.6
2022-09-02T10:35:33.764Z,71.2
2022-09-02T10:36:36.053Z,71.7
2022-09-02T10:37:38.748Z,71.6
2022-09-02T10:38:40.788Z,71.3
2022-09-02T10:39:42.859Z,70.8
2022-09-02T10:40:44.694Z,70.4
2022-09-02T10:41:48.345Z,70
2022-09-02T10:42:50.907Z,70.8
2022-09-02T10:43:57.213Z,70.3
2022-09-02T10:44:58.383Z,70.9
2022-09-02T10:45:58.717Z,70.9
2022-09-02T10:47:08.990Z,70.8
2022-09-02T10:48:06.754Z,70.8
2022-09-02T10:49:08.893Z,70.4
2022-09-02T10:50:11.518Z,70.7
2022-09-02T10:51:12.782Z,70.5
2022-09-02T10:53:19.268Z,69.9
2022-09-02T10:54:21.929Z,70.4
2022-09-02T10:55:23.102Z,70.8
2022-09-02T10:56:24.760Z,71.3
2022-09-02T10:57:27.144Z,71.5
2022-09-02T10:58:30.936Z,71.5
2022-09-02T10:59:33.270Z,72.2
2022-09-02T11:00:35.232Z,71.8
2022-09-02T11:01:45.077Z,71.7
2022-09-02T11:02:38.810Z,71.4
2022-09-02T11:03:42.053Z,71.1
2022-09-02T11:04:46.415Z,72.3
2022-09-02T11:05:44.934Z,72.9
2022-09-02T11:07:02.051Z,71.9
2022-09-02T11:07:49.624Z,71.7
2022-09-02T11:08:51.145Z,71.5
2022-09-02T11:09:55.239Z,71.6
2022-09-02T11:10:57.319Z,71.4
2022-09-02T11:12:02.497Z,71.3
2022-09-02T11:13:06.448Z,71.1
2022-09-02T11:14:04.920Z,70.9
2022-09-02T11:15:06.778Z,70.9
2022-09-02T11:16:09.229Z,70.9
2022-09-02T11:17:20.804Z,69.9
2022-09-02T11:18:22.779Z,69.7
2022-09-02T11:19:26.782Z,70.3
2022-09-02T11:20:18.940Z,70.4
2022-09-02T11:21:20.875Z,69.9
2022-09-02T11:22:26.765Z,69.6
2022-09-02T11:23:25.035Z,69.9
2022-09-02T11:24:26.976Z,70.7
2022-09-02T11:25:28.987Z,71.5
2022-09-02T11:26:30.727Z,71.2
2022-09-02T11:27:42.167Z,70.5
2022-09-02T11:28:36.659Z,70.2
2022-09-02T11:29:41.360Z,69.6
2022-09-02T11:30:45.218Z,69.8
2022-09-02T11:31:49.286Z,70
2022-09-02T11:32:51.590Z,70.5
2022-09-02T11:33:53.385Z,70.4
2022-09-02T11:34:57.136Z,70.7
2022-09-02T11:35:58.913Z,70.1
2022-09-02T11:37:06.849Z,70.1
2022-09-02T11:38:06.248Z,70.2
2022-09-02T11:39:04.712Z,70.6
2022-09-02T11:40:30.522Z,71
2022-09-02T11:41:37.374Z,70.8
2022-09-02T11:42:12.712Z,70.8
2022-09-02T11:43:16.610Z,72.3
2022-09-02T11:44:18.662Z,71.5
2022-09-02T11:45:21.690Z,71.1
2022-09-02T11:46:23.647Z,72.1
2022-09-02T11:47:27.637Z,72.6
2022-09-02T11:48:31.633Z,72.9
2022-09-02T11:49:33.624Z,72.4
2022-09-02T11:50:38.746Z,72.3
2022-09-02T11:51:37.617Z,72.3
2022-09-02T11:52:39.617Z,72.5
2022-09-02T11:53:41.621Z,72
2022-09-02T11:54:45.621Z,71.5
2022-09-02T11:55:49.646Z,71.9
2022-09-02T11:56:51.643Z,71.8
2022-09-02T11:57:53.657Z,71
2022-09-02T11:58:55.652Z,70.2
2022-09-02T11:59:57.625Z,69.5
2022-09-02T12:01:00.747Z,69.6
2022-09-02T12:02:02.639Z,70
2022-09-02T12:03:16.697Z,69.9
2022-09-02T12:05:12.761Z,70.9
2022-09-02T12:06:16.796Z,70.9
2022-09-02T12:07:18.644Z,71.2
2022-09-02T12:08:20.643Z,70.8
2022-09-02T12:09:22.661Z,70.8
2022-09-02T12:10:26.647Z,70.9
2022-09-02T12:11:30.677Z,71
2022-09-02T12:12:34.749Z,71.3
2022-09-02T12:13:37.400Z,71.5
2022-09-02T12:14:45.631Z,71.3
2022-09-02T12:15:56.384Z,70.4
2022-09-02T12:16:54.334Z,71
2022-09-02T12:18:18.893Z,70.6
2022-09-02T12:19:18.799Z,70.2
2022-09-02T12:19:56.887Z,69.7
2022-09-02T12:21:16.589Z,69.3
2022-09-02T12:22:18.765Z,69.4
2022-09-02T12:23:32.441Z,69.3
2022-09-02T12:24:22.719Z,69.3
2022-09-02T12:25:26.922Z,70.1
2022-09-02T12:26:30.810Z,70.7
2022-09-02T12:27:39.250Z,70.6
2022-09-02T12:28:36.732Z,70.8
2022-09-02T12:29:39.697Z,71.4
2022-09-02T12:30:40.719Z,71.8
2022-09-02T12:31:34.480Z,71.7
2022-09-02T12:32:34.830Z,72
2022-09-02T12:33:36.668Z,70.9
2022-09-02T12:35:15.265Z,70.4
2022-09-02T12:35:40.801Z,70.1
2022-09-02T12:36:46.099Z,69.7
2022-09-02T12:37:48.011Z,70.2
2022-09-02T12:38:48.991Z,70
2022-09-02T12:39:49.216Z,70.8
2022-09-02T12:40:51.594Z,71.1
2022-09-02T12:41:54.659Z,70.7
2022-09-02T12:42:56.983Z,71.3
2022-09-02T12:43:58.661Z,71.3
2022-09-02T12:45:00.660Z,71.7
2022-09-02T12:46:04.706Z,71.1
2022-09-02T12:47:06.678Z,71
2022-09-02T12:48:08.713Z,70.4
2022-09-02T12:49:10.672Z,69.9
2022-09-02T12:50:12.705Z,69.8
2022-09-02T12:51:16.681Z,70
2022-09-02T12:52:18.669Z,70.2
2022-09-02T12:53:21.148Z,69.6
2022-09-02T12:54:22.680Z,69.7
2022-09-02T12:55:25.673Z,70.5
2022-09-02T12:56:27.683Z,71.1
2022-09-02T12:57:29.680Z,71.5
2022-09-02T12:58:31.684Z,71.7
2022-09-02T12:59:33.681Z,72.3
2022-09-02T13:00:35.672Z,72.6
2022-09-02T13:01:37.843Z,72.5
2022-09-02T13:02:41.732Z,72.3
2022-09-02T13:03:45.690Z,72.9
2022-09-02T13:04:49.683Z,73.1
2022-09-02T13:05:51.683Z,73.5
2022-09-02T13:06:53.692Z,73.4
2022-09-02T13:07:56.833Z,73.3
2022-09-02T13:08:57.693Z,73
2022-09-02T13:09:59.693Z,73
2022-09-02T13:11:01.688Z,73.2
2022-09-02T13:12:03.687Z,73.2
2022-09-02T13:13:05.717Z,73.1
2022-09-02T13:14:07.707Z,73
2022-09-02T13:15:09.706Z,72.9
2022-09-02T13:16:18.534Z,73.1
2022-09-02T13:17:35.980Z,71.7
2022-09-02T13:18:17.707Z,71.9
2022-09-02T13:19:19.712Z,72.4
2022-09-02T13:20:21.698Z,72.6
2022-09-02T13:21:23.708Z,72.2
2022-09-02T13:22:25.700Z,72.3
2022-09-02T13:23:31.246Z,72.2
2022-09-02T13:24:29.698Z,73
2022-09-02T13:25:31.762Z,72.5
2022-09-02T13:26:48.769Z,72
2022-09-02T13:27:39.710Z,71.9
2022-09-02T13:28:43.711Z,71.9
2022-09-02T13:29:45.730Z,71.8
2022-09-02T13:30:47.769Z,71.8
2022-09-02T13:31:49.703Z,71.8
2022-09-02T13:32:51.703Z,71.5
2022-09-02T13:33:53.706Z,71.3
2022-09-02T13:34:55.771Z,71.6
2022-09-02T13:35:57.702Z,72.5
2022-09-02T13:36:59.711Z,72.7
2022-09-02T13:38:01.935Z,72
2022-09-02T13:39:03.781Z,72.3
2022-09-02T13:40:05.755Z,71.9
2022-09-02T13:41:09.436Z,71.6
2022-09-02T13:42:10.319Z,70.7
2022-09-02T13:43:13.722Z,70.6
2022-09-02T13:44:15.750Z,71.5
2022-09-02T13:45:18.670Z,72.6
2022-09-02T13:46:19.775Z,72.3
2022-09-02T13:47:21.715Z,72.4
2022-09-02T13:48:25.713Z,71.9
2022-09-02T13:49:33.836Z,72.4
2022-09-02T13:50:31.717Z,72.7
2022-09-02T13:51:33.716Z,71.9
2022-09-02T13:53:20.056Z,71.8
2022-09-02T13:53:45.467Z,71.7
2022-09-02T13:54:39.816Z,71.8
2022-09-02T13:55:43.649Z,72.8
2022-09-02T13:56:43.724Z,73.2
2022-09-02T13:57:45.730Z,73.5
2022-09-02T13:58:47.728Z,73.5